sensor_id;sensor_type;location;lat;lon;timestamp;P1;durP1;ratioP1;P2;durP2;ratioP2
52942;SDS011;38809;53.300;6.614;2023-05-24T00:01:50;12.48;;;3.65;;
52942;SDS011;38809;53.300;6.614;2023-05-24T00:04:16;10.88;;;3.42;;
52942;SDS011;38809;53.300;6.614;2023-05-24T00:06:43;11.43;;;3.17;;
52942;SDS011;38809;53.300;6.614;2023-05-24T00:09:09;10.43;;;3.10;;
52942;SDS011;38809;53.300;6.614;2023-05-24T00:11:36;8.30;;;2.45;;
52942;SDS011;38809;53.300;6.614;2023-05-24T00:14:02;11.48;;;3.03;;
52942;SDS011;38809;53.300;6.614;2023-05-24T00:16:27;12.55;;;4.07;;
52942;SDS011;38809;53.300;6.614;2023-05-24T00:18:53;12.90;;;2.73;;
52942;SDS011;38809;53.300;6.614;2023-05-24T00:21:19;13.77;;;3.00;;
52942;SDS011;38809;53.300;6.614;2023-05-24T00:23:45;13.18;;;2.92;;
52942;SDS011;38809;53.300;6.614;2023-05-24T00:26:11;10.57;;;2.97;;
52942;SDS011;38809;53.300;6.614;2023-05-24T00:28:37;10.05;;;2.55;;
52942;SDS011;38809;53.300;6.614;2023-05-24T00:31:02;15.53;;;3.67;;
52942;SDS011;38809;53.300;6.614;2023-05-24T00:33:28;12.60;;;3.38;;
52942;SDS011;38809;53.300;6.614;2023-05-24T00:35:54;13.82;;;3.65;;
52942;SDS011;38809;53.300;6.614;2023-05-24T00:38:23;7.55;;;2.50;;
52942;SDS011;38809;53.300;6.614;2023-05-24T00:40:50;12.82;;;3.40;;
52942;SDS011;38809;53.300;6.614;2023-05-24T00:43:16;10.90;;;3.92;;
52942;SDS011;38809;53.300;6.614;2023-05-24T00:48:09;14.85;;;3.67;;
52942;SDS011;38809;53.300;6.614;2023-05-24T00:50:35;10.65;;;3.00;;
52942;SDS011;38809;53.300;6.614;2023-05-24T00:53:03;11.40;;;3.13;;
52942;SDS011;38809;53.300;6.614;2023-05-24T00:55:30;11.00;;;2.72;;
52942;SDS011;38809;53.300;6.614;2023-05-24T00:57:58;7.75;;;2.70;;
52942;SDS011;38809;53.300;6.614;2023-05-24T01:00:24;12.27;;;4.18;;
52942;SDS011;38809;53.300;6.614;2023-05-24T01:02:51;14.90;;;2.90;;
52942;SDS011;38809;53.300;6.614;2023-05-24T01:05:18;13.45;;;3.63;;
52942;SDS011;38809;53.300;6.614;2023-05-24T01:13:24;9.05;;;3.60;;
52942;SDS011;38809;53.300;6.614;2023-05-24T01:15:58;15.82;;;3.15;;
52942;SDS011;38809;53.300;6.614;2023-05-24T01:18:32;9.15;;;3.25;;
52942;SDS011;38809;53.300;6.614;2023-05-24T01:24:24;10.68;;;3.10;;
52942;SDS011;38809;53.300;6.614;2023-05-24T01:27:05;11.45;;;3.30;;
52942;SDS011;38809;53.300;6.614;2023-05-24T01:29:32;14.20;;;3.40;;
52942;SDS011;38809;53.300;6.614;2023-05-24T01:31:59;10.13;;;2.97;;
52942;SDS011;38809;53.300;6.614;2023-05-24T01:34:25;10.90;;;3.13;;
52942;SDS011;38809;53.300;6.614;2023-05-24T01:36:51;12.27;;;3.10;;
52942;SDS011;38809;53.300;6.614;2023-05-24T01:39:17;12.30;;;3.13;;
52942;SDS011;38809;53.300;6.614;2023-05-24T01:41:46;13.13;;;3.95;;
52942;SDS011;38809;53.300;6.614;2023-05-24T01:47:30;11.10;;;2.88;;
52942;SDS011;38809;53.300;6.614;2023-05-24T01:50:08;13.00;;;3.77;;
52942;SDS011;38809;53.300;6.614;2023-05-24T01:52:41;9.18;;;3.33;;
52942;SDS011;38809;53.300;6.614;2023-05-24T01:55:09;13.45;;;3.90;;
52942;SDS011;38809;53.300;6.614;2023-05-24T01:57:41;12.57;;;3.38;;
52942;SDS011;38809;53.300;6.614;2023-05-24T02:00:10;11.55;;;2.65;;
52942;SDS011;38809;53.300;6.614;2023-05-24T02:02:42;11.60;;;3.25;;
52942;SDS011;38809;53.300;6.614;2023-05-24T02:05:08;10.25;;;3.45;;
52942;SDS011;38809;53.300;6.614;2023-05-24T02:07:35;13.25;;;2.90;;
52942;SDS011;38809;53.300;6.614;2023-05-24T02:10:01;9.55;;;3.05;;
52942;SDS011;38809;53.300;6.614;2023-05-24T02:12:28;12.35;;;3.42;;
52942;SDS011;38809;53.300;6.614;2023-05-24T02:14:54;12.35;;;3.33;;
52942;SDS011;38809;53.300;6.614;2023-05-24T02:17:21;14.82;;;3.60;;
52942;SDS011;38809;53.300;6.614;2023-05-24T02:19:48;10.90;;;3.40;;
52942;SDS011;38809;53.300;6.614;2023-05-24T02:22:14;10.63;;;3.63;;
52942;SDS011;38809;53.300;6.614;2023-05-24T02:24:40;10.35;;;3.65;;
52942;SDS011;38809;53.300;6.614;2023-05-24T02:27:05;12.20;;;3.13;;
52942;SDS011;38809;53.300;6.614;2023-05-24T02:29:31;10.50;;;3.53;;
52942;SDS011;38809;53.300;6.614;2023-05-24T02:31:56;11.63;;;3.17;;
52942;SDS011;38809;53.300;6.614;2023-05-24T02:34:22;10.03;;;2.97;;
52942;SDS011;38809;53.300;6.614;2023-05-24T02:36:49;10.02;;;3.13;;
52942;SDS011;38809;53.300;6.614;2023-05-24T02:39:14;12.57;;;3.20;;
52942;SDS011;38809;53.300;6.614;2023-05-24T02:41:40;14.60;;;3.70;;
52942;SDS011;38809;53.300;6.614;2023-05-24T02:44:06;9.13;;;2.80;;
52942;SDS011;38809;53.300;6.614;2023-05-24T02:46:32;10.43;;;3.47;;
52942;SDS011;38809;53.300;6.614;2023-05-24T02:48:58;14.45;;;3.15;;
52942;SDS011;38809;53.300;6.614;2023-05-24T02:51:23;9.82;;;3.13;;
52942;SDS011;38809;53.300;6.614;2023-05-24T02:53:49;13.33;;;3.60;;
52942;SDS011;38809;53.300;6.614;2023-05-24T02:56:15;11.35;;;3.88;;
52942;SDS011;38809;53.300;6.614;2023-05-24T03:01:09;11.13;;;2.65;;
52942;SDS011;38809;53.300;6.614;2023-05-24T03:03:36;18.80;;;3.92;;
52942;SDS011;38809;53.300;6.614;2023-05-24T03:06:02;9.18;;;3.03;;
52942;SDS011;38809;53.300;6.614;2023-05-24T03:08:28;14.07;;;2.75;;
52942;SDS011;38809;53.300;6.614;2023-05-24T03:10:54;11.60;;;2.60;;
52942;SDS011;38809;53.300;6.614;2023-05-24T03:13:19;9.37;;;2.77;;
52942;SDS011;38809;53.300;6.614;2023-05-24T03:15:45;9.40;;;2.90;;
52942;SDS011;38809;53.300;6.614;2023-05-24T03:18:11;13.73;;;2.53;;
52942;SDS011;38809;53.300;6.614;2023-05-24T03:20:36;11.63;;;2.73;;
52942;SDS011;38809;53.300;6.614;2023-05-24T03:23:02;6.53;;;2.45;;
52942;SDS011;38809;53.300;6.614;2023-05-24T03:25:28;9.23;;;2.60;;
52942;SDS011;38809;53.300;6.614;2023-05-24T03:27:53;14.63;;;3.03;;
52942;SDS011;38809;53.300;6.614;2023-05-24T03:30:19;9.43;;;2.67;;
52942;SDS011;38809;53.300;6.614;2023-05-24T03:32:45;9.40;;;2.63;;
52942;SDS011;38809;53.300;6.614;2023-05-24T03:35:11;10.70;;;2.53;;
52942;SDS011;38809;53.300;6.614;2023-05-24T03:37:37;12.90;;;3.43;;
52942;SDS011;38809;53.300;6.614;2023-05-24T03:40:03;10.75;;;4.20;;
52942;SDS011;38809;53.300;6.614;2023-05-24T03:42:29;15.25;;;3.70;;
52942;SDS011;38809;53.300;6.614;2023-05-24T03:44:55;10.05;;;2.75;;
52942;SDS011;38809;53.300;6.614;2023-05-24T03:47:20;12.93;;;3.20;;
52942;SDS011;38809;53.300;6.614;2023-05-24T03:49:46;14.80;;;4.17;;
52942;SDS011;38809;53.300;6.614;2023-05-24T03:52:11;13.87;;;3.60;;
52942;SDS011;38809;53.300;6.614;2023-05-24T03:54:37;12.68;;;3.00;;
52942;SDS011;38809;53.300;6.614;2023-05-24T03:57:03;10.48;;;3.15;;
52942;SDS011;38809;53.300;6.614;2023-05-24T03:59:29;12.63;;;3.08;;
52942;SDS011;38809;53.300;6.614;2023-05-24T04:01:55;11.90;;;3.08;;
52942;SDS011;38809;53.300;6.614;2023-05-24T04:04:20;9.02;;;3.78;;
52942;SDS011;38809;53.300;6.614;2023-05-24T04:06:46;11.63;;;2.97;;
52942;SDS011;38809;53.300;6.614;2023-05-24T04:09:13;12.65;;;3.28;;
52942;SDS011;38809;53.300;6.614;2023-05-24T04:11:39;11.57;;;3.38;;
52942;SDS011;38809;53.300;6.614;2023-05-24T04:14:05;15.48;;;3.47;;
52942;SDS011;38809;53.300;6.614;2023-05-24T04:16:31;12.10;;;3.00;;
52942;SDS011;38809;53.300;6.614;2023-05-24T04:21:25;12.57;;;2.80;;
52942;SDS011;38809;53.300;6.614;2023-05-24T04:23:50;14.90;;;3.72;;
52942;SDS011;38809;53.300;6.614;2023-05-24T04:26:16;12.07;;;4.07;;
52942;SDS011;38809;53.300;6.614;2023-05-24T04:28:42;9.32;;;2.78;;
52942;SDS011;38809;53.300;6.614;2023-05-24T04:31:09;10.48;;;3.80;;
52942;SDS011;38809;53.300;6.614;2023-05-24T04:33:35;12.77;;;3.42;;
52942;SDS011;38809;53.300;6.614;2023-05-24T04:36:03;10.93;;;2.67;;
52942;SDS011;38809;53.300;6.614;2023-05-24T04:38:29;16.50;;;3.20;;
52942;SDS011;38809;53.300;6.614;2023-05-24T04:40:59;10.63;;;2.85;;
52942;SDS011;38809;53.300;6.614;2023-05-24T04:43:25;8.23;;;3.05;;
52942;SDS011;38809;53.300;6.614;2023-05-24T04:45:51;10.57;;;3.40;;
52942;SDS011;38809;53.300;6.614;2023-05-24T04:48:20;14.75;;;3.58;;
52942;SDS011;38809;53.300;6.614;2023-05-24T04:50:51;11.40;;;3.08;;
52942;SDS011;38809;53.300;6.614;2023-05-24T04:53:17;12.25;;;3.83;;
52942;SDS011;38809;53.300;6.614;2023-05-24T04:55:47;15.55;;;3.20;;
52942;SDS011;38809;53.300;6.614;2023-05-24T04:58:14;17.20;;;4.00;;
52942;SDS011;38809;53.300;6.614;2023-05-24T05:00:41;9.35;;;2.92;;
52942;SDS011;38809;53.300;6.614;2023-05-24T05:05:33;10.25;;;2.80;;
52942;SDS011;38809;53.300;6.614;2023-05-24T05:07:59;12.77;;;3.55;;
52942;SDS011;38809;53.300;6.614;2023-05-24T05:10:25;10.80;;;3.10;;
52942;SDS011;38809;53.300;6.614;2023-05-24T05:12:51;8.77;;;3.15;;
52942;SDS011;38809;53.300;6.614;2023-05-24T05:15:18;12.38;;;3.38;;
52942;SDS011;38809;53.300;6.614;2023-05-24T05:17:45;12.68;;;2.80;;
52942;SDS011;38809;53.300;6.614;2023-05-24T05:20:10;10.75;;;3.35;;
52942;SDS011;38809;53.300;6.614;2023-05-24T05:22:36;8.48;;;2.65;;
52942;SDS011;38809;53.300;6.614;2023-05-24T05:25:02;10.45;;;3.13;;
52942;SDS011;38809;53.300;6.614;2023-05-24T05:27:28;8.80;;;2.50;;
52942;SDS011;38809;53.300;6.614;2023-05-24T05:29:54;7.57;;;2.55;;
52942;SDS011;38809;53.300;6.614;2023-05-24T05:32:20;11.38;;;2.75;;
52942;SDS011;38809;53.300;6.614;2023-05-24T05:34:46;7.38;;;2.90;;
52942;SDS011;38809;53.300;6.614;2023-05-24T05:37:11;11.45;;;2.92;;
52942;SDS011;38809;53.300;6.614;2023-05-24T05:39:37;14.15;;;3.30;;
52942;SDS011;38809;53.300;6.614;2023-05-24T05:42:03;13.57;;;3.33;;
52942;SDS011;38809;53.300;6.614;2023-05-24T05:44:29;9.85;;;2.58;;
52942;SDS011;38809;53.300;6.614;2023-05-24T05:46:55;17.33;;;3.50;;
52942;SDS011;38809;53.300;6.614;2023-05-24T05:49:20;13.80;;;2.90;;
52942;SDS011;38809;53.300;6.614;2023-05-24T05:51:46;9.75;;;2.95;;
52942;SDS011;38809;53.300;6.614;2023-05-24T05:54:12;15.63;;;3.00;;
52942;SDS011;38809;53.300;6.614;2023-05-24T05:56:43;12.43;;;3.40;;
52942;SDS011;38809;53.300;6.614;2023-05-24T05:59:10;10.45;;;2.53;;
52942;SDS011;38809;53.300;6.614;2023-05-24T06:01:37;8.65;;;2.63;;
52942;SDS011;38809;53.300;6.614;2023-05-24T06:04:03;11.13;;;2.95;;
52942;SDS011;38809;53.300;6.614;2023-05-24T06:06:29;8.63;;;2.75;;
52942;SDS011;38809;53.300;6.614;2023-05-24T06:08:55;9.18;;;2.55;;
52942;SDS011;38809;53.300;6.614;2023-05-24T06:11:21;8.10;;;1.98;;
52942;SDS011;38809;53.300;6.614;2023-05-24T06:13:47;9.90;;;2.53;;
52942;SDS011;38809;53.300;6.614;2023-05-24T06:16:13;9.18;;;3.13;;
52942;SDS011;38809;53.300;6.614;2023-05-24T06:21:05;11.50;;;3.20;;
52942;SDS011;38809;53.300;6.614;2023-05-24T06:23:34;7.47;;;2.65;;
52942;SDS011;38809;53.300;6.614;2023-05-24T06:26:01;7.07;;;2.40;;
52942;SDS011;38809;53.300;6.614;2023-05-24T06:28:27;11.15;;;2.75;;
52942;SDS011;38809;53.300;6.614;2023-05-24T06:30:53;7.77;;;2.80;;
52942;SDS011;38809;53.300;6.614;2023-05-24T06:33:19;8.90;;;2.80;;
52942;SDS011;38809;53.300;6.614;2023-05-24T06:35:44;11.65;;;2.55;;
52942;SDS011;38809;53.300;6.614;2023-05-24T06:38:10;7.97;;;2.17;;
52942;SDS011;38809;53.300;6.614;2023-05-24T06:40:36;9.07;;;2.58;;
52942;SDS011;38809;53.300;6.614;2023-05-24T06:43:02;10.13;;;2.42;;
52942;SDS011;38809;53.300;6.614;2023-05-24T06:47:54;7.38;;;2.55;;
52942;SDS011;38809;53.300;6.614;2023-05-24T06:50:20;8.63;;;2.75;;
52942;SDS011;38809;53.300;6.614;2023-05-24T06:52:46;9.00;;;2.63;;
52942;SDS011;38809;53.300;6.614;2023-05-24T06:55:12;8.75;;;2.53;;
52942;SDS011;38809;53.300;6.614;2023-05-24T06:57:38;7.65;;;2.72;;
52942;SDS011;38809;53.300;6.614;2023-05-24T07:00:04;11.00;;;2.45;;
52942;SDS011;38809;53.300;6.614;2023-05-24T07:02:39;9.30;;;2.75;;
52942;SDS011;38809;53.300;6.614;2023-05-24T07:05:05;10.20;;;2.75;;
52942;SDS011;38809;53.300;6.614;2023-05-24T07:07:39;8.30;;;2.63;;
52942;SDS011;38809;53.300;6.614;2023-05-24T07:10:06;11.45;;;2.75;;
52942;SDS011;38809;53.300;6.614;2023-05-24T07:12:33;10.25;;;2.70;;
52942;SDS011;38809;53.300;6.614;2023-05-24T07:14:59;10.07;;;2.97;;
52942;SDS011;38809;53.300;6.614;2023-05-24T07:17:24;8.07;;;2.67;;
52942;SDS011;38809;53.300;6.614;2023-05-24T07:19:50;7.43;;;2.25;;
52942;SDS011;38809;53.300;6.614;2023-05-24T07:22:16;12.25;;;2.50;;
52942;SDS011;38809;53.300;6.614;2023-05-24T07:24:42;10.02;;;2.95;;
52942;SDS011;38809;53.300;6.614;2023-05-24T07:27:08;5.78;;;2.22;;
52942;SDS011;38809;53.300;6.614;2023-05-24T07:29:33;7.72;;;3.08;;
52942;SDS011;38809;53.300;6.614;2023-05-24T07:32:00;10.68;;;2.70;;
52942;SDS011;38809;53.300;6.614;2023-05-24T07:34:25;6.82;;;2.13;;
52942;SDS011;38809;53.300;6.614;2023-05-24T07:36:54;10.75;;;3.03;;
52942;SDS011;38809;53.300;6.614;2023-05-24T07:39:20;8.07;;;2.47;;
52942;SDS011;38809;53.300;6.614;2023-05-24T07:44:12;7.30;;;2.40;;
52942;SDS011;38809;53.300;6.614;2023-05-24T07:46:39;4.75;;;1.92;;
52942;SDS011;38809;53.300;6.614;2023-05-24T07:49:04;6.50;;;2.13;;
52942;SDS011;38809;53.300;6.614;2023-05-24T07:51:30;6.63;;;2.10;;
52942;SDS011;38809;53.300;6.614;2023-05-24T07:53:56;7.55;;;2.10;;
52942;SDS011;38809;53.300;6.614;2023-05-24T07:56:22;9.00;;;2.78;;
52942;SDS011;38809;53.300;6.614;2023-05-24T07:58:48;5.53;;;2.28;;
52942;SDS011;38809;53.300;6.614;2023-05-24T08:01:15;4.57;;;2.30;;
52942;SDS011;38809;53.300;6.614;2023-05-24T08:03:44;8.73;;;2.83;;
52942;SDS011;38809;53.300;6.614;2023-05-24T08:06:10;6.93;;;2.05;;
52942;SDS011;38809;53.300;6.614;2023-05-24T08:08:37;5.55;;;1.77;;
52942;SDS011;38809;53.300;6.614;2023-05-24T08:11:03;6.03;;;2.28;;
52942;SDS011;38809;53.300;6.614;2023-05-24T08:13:29;5.88;;;1.98;;
52942;SDS011;38809;53.300;6.614;2023-05-24T08:15:55;4.10;;;2.00;;
52942;SDS011;38809;53.300;6.614;2023-05-24T08:18:22;7.45;;;2.58;;
52942;SDS011;38809;53.300;6.614;2023-05-24T08:20:47;7.95;;;2.22;;
52942;SDS011;38809;53.300;6.614;2023-05-24T08:23:13;6.10;;;2.20;;
52942;SDS011;38809;53.300;6.614;2023-05-24T08:25:39;5.57;;;1.58;;
52942;SDS011;38809;53.300;6.614;2023-05-24T08:28:05;6.57;;;1.95;;
52942;SDS011;38809;53.300;6.614;2023-05-24T08:30:30;7.43;;;2.30;;
52942;SDS011;38809;53.300;6.614;2023-05-24T08:32:56;8.43;;;2.40;;
52942;SDS011;38809;53.300;6.614;2023-05-24T08:35:22;5.25;;;1.77;;
52942;SDS011;38809;53.300;6.614;2023-05-24T08:37:48;9.68;;;2.60;;
52942;SDS011;38809;53.300;6.614;2023-05-24T08:40:14;7.85;;;2.38;;
52942;SDS011;38809;53.300;6.614;2023-05-24T08:42:40;5.70;;;2.30;;
52942;SDS011;38809;53.300;6.614;2023-05-24T08:45:12;7.03;;;2.22;;
52942;SDS011;38809;53.300;6.614;2023-05-24T08:47:39;7.15;;;2.28;;
52942;SDS011;38809;53.300;6.614;2023-05-24T08:50:05;9.95;;;2.03;;
52942;SDS011;38809;53.300;6.614;2023-05-24T08:52:32;9.20;;;2.88;;
52942;SDS011;38809;53.300;6.614;2023-05-24T08:54:58;11.05;;;2.50;;
52942;SDS011;38809;53.300;6.614;2023-05-24T08:57:27;6.00;;;1.98;;
52942;SDS011;38809;53.300;6.614;2023-05-24T08:59:54;8.63;;;2.78;;
52942;SDS011;38809;53.300;6.614;2023-05-24T09:02:21;9.75;;;1.95;;
52942;SDS011;38809;53.300;6.614;2023-05-24T09:04:48;7.90;;;2.75;;
52942;SDS011;38809;53.300;6.614;2023-05-24T09:07:16;9.23;;;2.90;;
52942;SDS011;38809;53.300;6.614;2023-05-24T09:09:46;4.55;;;2.10;;
52942;SDS011;38809;53.300;6.614;2023-05-24T09:12:14;8.43;;;2.42;;
52942;SDS011;38809;53.300;6.614;2023-05-24T09:14:43;7.97;;;2.45;;
52942;SDS011;38809;53.300;6.614;2023-05-24T09:17:13;7.43;;;2.80;;
52942;SDS011;38809;53.300;6.614;2023-05-24T09:22:14;10.25;;;3.47;;
52942;SDS011;38809;53.300;6.614;2023-05-24T09:24:47;6.60;;;2.35;;
52942;SDS011;38809;53.300;6.614;2023-05-24T09:27:17;7.38;;;2.83;;
52942;SDS011;38809;53.300;6.614;2023-05-24T09:29:47;8.45;;;2.70;;
52942;SDS011;38809;53.300;6.614;2023-05-24T09:32:17;6.38;;;2.20;;
52942;SDS011;38809;53.300;6.614;2023-05-24T09:34:46;11.43;;;2.80;;
52942;SDS011;38809;53.300;6.614;2023-05-24T09:37:19;7.78;;;2.70;;
52942;SDS011;38809;53.300;6.614;2023-05-24T09:39:47;6.00;;;2.42;;
52942;SDS011;38809;53.300;6.614;2023-05-24T09:42:15;4.82;;;1.80;;
52942;SDS011;38809;53.300;6.614;2023-05-24T09:44:45;10.43;;;2.20;;
52942;SDS011;38809;53.300;6.614;2023-05-24T09:47:12;4.70;;;1.90;;
52942;SDS011;38809;53.300;6.614;2023-05-24T09:49:39;6.28;;;1.88;;
52942;SDS011;38809;53.300;6.614;2023-05-24T09:54:31;5.90;;;1.73;;
52942;SDS011;38809;53.300;6.614;2023-05-24T09:57:01;6.90;;;1.63;;
52942;SDS011;38809;53.300;6.614;2023-05-24T09:59:31;7.28;;;2.58;;
52942;SDS011;38809;53.300;6.614;2023-05-24T10:02:07;7.47;;;1.98;;
52942;SDS011;38809;53.300;6.614;2023-05-24T10:04:34;4.57;;;2.08;;
52942;SDS011;38809;53.300;6.614;2023-05-24T10:07:00;4.78;;;1.45;;
52942;SDS011;38809;53.300;6.614;2023-05-24T10:11:57;7.85;;;1.80;;
52942;SDS011;38809;53.300;6.614;2023-05-24T10:14:35;7.95;;;2.70;;
52942;SDS011;38809;53.300;6.614;2023-05-24T10:17:02;7.40;;;2.10;;
52942;SDS011;38809;53.300;6.614;2023-05-24T10:19:29;11.13;;;2.50;;
52942;SDS011;38809;53.300;6.614;2023-05-24T10:21:59;9.65;;;2.28;;
52942;SDS011;38809;53.300;6.614;2023-05-24T10:24:31;9.60;;;2.47;;
52942;SDS011;38809;53.300;6.614;2023-05-24T10:26:59;8.25;;;2.60;;
52942;SDS011;38809;53.300;6.614;2023-05-24T10:32:17;8.27;;;2.50;;
52942;SDS011;38809;53.300;6.614;2023-05-24T10:34:45;11.93;;;2.83;;
52942;SDS011;38809;53.300;6.614;2023-05-24T10:37:12;11.18;;;2.55;;
52942;SDS011;38809;53.300;6.614;2023-05-24T10:39:38;7.22;;;2.13;;
52942;SDS011;38809;53.300;6.614;2023-05-24T10:42:06;6.45;;;2.28;;
52942;SDS011;38809;53.300;6.614;2023-05-24T10:44:31;5.85;;;2.28;;
52942;SDS011;38809;53.300;6.614;2023-05-24T10:47:07;6.22;;;1.88;;
52942;SDS011;38809;53.300;6.614;2023-05-24T10:49:50;6.93;;;2.22;;
52942;SDS011;38809;53.300;6.614;2023-05-24T10:52:18;9.65;;;2.58;;
52942;SDS011;38809;53.300;6.614;2023-05-24T10:55:00;6.72;;;1.98;;
52942;SDS011;38809;53.300;6.614;2023-05-24T10:57:32;9.02;;;2.45;;
52942;SDS011;38809;53.300;6.614;2023-05-24T11:02:47;7.60;;;2.15;;
52942;SDS011;38809;53.300;6.614;2023-05-24T11:05:13;9.20;;;2.60;;
52942;SDS011;38809;53.300;6.614;2023-05-24T11:07:42;13.85;;;3.28;;
52942;SDS011;38809;53.300;6.614;2023-05-24T11:10:12;7.25;;;3.03;;
52942;SDS011;38809;53.300;6.614;2023-05-24T11:12:42;9.00;;;2.50;;
52942;SDS011;38809;53.300;6.614;2023-05-24T11:15:09;7.90;;;2.58;;
52942;SDS011;38809;53.300;6.614;2023-05-24T11:20:33;5.30;;;1.73;;
52942;SDS011;38809;53.300;6.614;2023-05-24T11:23:02;7.07;;;2.70;;
52942;SDS011;38809;53.300;6.614;2023-05-24T11:25:31;8.63;;;3.13;;
52942;SDS011;38809;53.300;6.614;2023-05-24T11:27:57;8.70;;;2.83;;
52942;SDS011;38809;53.300;6.614;2023-05-24T11:30:25;9.05;;;3.00;;
52942;SDS011;38809;53.300;6.614;2023-05-24T11:32:51;14.43;;;2.83;;
52942;SDS011;38809;53.300;6.614;2023-05-24T11:35:19;14.20;;;3.38;;
52942;SDS011;38809;53.300;6.614;2023-05-24T11:37:47;7.93;;;2.95;;
52942;SDS011;38809;53.300;6.614;2023-05-24T11:40:12;13.02;;;2.70;;
52942;SDS011;38809;53.300;6.614;2023-05-24T11:42:40;5.75;;;2.28;;
52942;SDS011;38809;53.300;6.614;2023-05-24T11:45:07;10.18;;;2.97;;
52942;SDS011;38809;53.300;6.614;2023-05-24T11:47:34;7.82;;;2.75;;
52942;SDS011;38809;53.300;6.614;2023-05-24T11:50:01;7.20;;;2.35;;
52942;SDS011;38809;53.300;6.614;2023-05-24T11:52:27;9.65;;;2.60;;
52942;SDS011;38809;53.300;6.614;2023-05-24T11:54:53;13.15;;;3.10;;
52942;SDS011;38809;53.300;6.614;2023-05-24T11:57:24;8.07;;;3.05;;
52942;SDS011;38809;53.300;6.614;2023-05-24T11:59:54;8.48;;;2.40;;
52942;SDS011;38809;53.300;6.614;2023-05-24T12:02:22;9.15;;;2.80;;
52942;SDS011;38809;53.300;6.614;2023-05-24T12:04:48;8.93;;;2.80;;
52942;SDS011;38809;53.300;6.614;2023-05-24T12:07:13;7.53;;;2.28;;
52942;SDS011;38809;53.300;6.614;2023-05-24T12:09:42;8.63;;;3.03;;
52942;SDS011;38809;53.300;6.614;2023-05-24T12:12:08;11.88;;;2.42;;
52942;SDS011;38809;53.300;6.614;2023-05-24T12:14:34;8.15;;;2.42;;
52942;SDS011;38809;53.300;6.614;2023-05-24T12:17:00;6.28;;;2.58;;
52942;SDS011;38809;53.300;6.614;2023-05-24T12:19:32;9.20;;;2.88;;
52942;SDS011;38809;53.300;6.614;2023-05-24T12:21:58;12.98;;;3.58;;
52942;SDS011;38809;53.300;6.614;2023-05-24T12:24:25;8.05;;;2.53;;
52942;SDS011;38809;53.300;6.614;2023-05-24T12:26:51;9.77;;;2.70;;
52942;SDS011;38809;53.300;6.614;2023-05-24T12:29:23;9.45;;;2.30;;
52942;SDS011;38809;53.300;6.614;2023-05-24T12:31:49;7.00;;;2.10;;
52942;SDS011;38809;53.300;6.614;2023-05-24T12:34:16;8.02;;;2.13;;
52942;SDS011;38809;53.300;6.614;2023-05-24T12:36:43;8.05;;;2.40;;
52942;SDS011;38809;53.300;6.614;2023-05-24T12:39:20;4.53;;;1.85;;
52942;SDS011;38809;53.300;6.614;2023-05-24T12:41:49;6.75;;;2.03;;
52942;SDS011;38809;53.300;6.614;2023-05-24T12:44:16;9.63;;;2.55;;
52942;SDS011;38809;53.300;6.614;2023-05-24T12:46:45;7.13;;;2.08;;
52942;SDS011;38809;53.300;6.614;2023-05-24T12:49:11;12.23;;;3.13;;
52942;SDS011;38809;53.300;6.614;2023-05-24T12:51:36;8.15;;;2.33;;
52942;SDS011;38809;53.300;6.614;2023-05-24T12:54:02;8.85;;;2.15;;
52942;SDS011;38809;53.300;6.614;2023-05-24T12:56:29;8.73;;;2.40;;
52942;SDS011;38809;53.300;6.614;2023-05-24T12:58:55;8.75;;;2.55;;
52942;SDS011;38809;53.300;6.614;2023-05-24T13:01:20;5.68;;;2.25;;
52942;SDS011;38809;53.300;6.614;2023-05-24T13:03:46;4.60;;;1.40;;
52942;SDS011;38809;53.300;6.614;2023-05-24T13:06:12;9.18;;;2.60;;
52942;SDS011;38809;53.300;6.614;2023-05-24T13:08:38;6.55;;;2.30;;
52942;SDS011;38809;53.300;6.614;2023-05-24T13:11:03;5.57;;;2.20;;
52942;SDS011;38809;53.300;6.614;2023-05-24T13:13:29;9.48;;;2.10;;
52942;SDS011;38809;53.300;6.614;2023-05-24T13:15:56;5.68;;;1.90;;
52942;SDS011;38809;53.300;6.614;2023-05-24T13:18:22;8.80;;;2.78;;
52942;SDS011;38809;53.300;6.614;2023-05-24T13:20:50;6.82;;;1.75;;
52942;SDS011;38809;53.300;6.614;2023-05-24T13:23:16;5.07;;;1.95;;
52942;SDS011;38809;53.300;6.614;2023-05-24T13:25:42;6.20;;;1.92;;
52942;SDS011;38809;53.300;6.614;2023-05-24T13:28:08;8.23;;;2.28;;
52942;SDS011;38809;53.300;6.614;2023-05-24T13:30:33;5.95;;;2.33;;
52942;SDS011;38809;53.300;6.614;2023-05-24T13:35:25;6.93;;;2.08;;
52942;SDS011;38809;53.300;6.614;2023-05-24T13:37:51;8.70;;;2.42;;
52942;SDS011;38809;53.300;6.614;2023-05-24T13:40:18;11.98;;;2.60;;
52942;SDS011;38809;53.300;6.614;2023-05-24T13:42:44;6.95;;;2.05;;
52942;SDS011;38809;53.300;6.614;2023-05-24T13:45:10;7.15;;;2.22;;
52942;SDS011;38809;53.300;6.614;2023-05-24T13:50:02;6.63;;;2.20;;
52942;SDS011;38809;53.300;6.614;2023-05-24T13:52:28;6.60;;;2.53;;
52942;SDS011;38809;53.300;6.614;2023-05-24T13:54:55;7.78;;;2.10;;
52942;SDS011;38809;53.300;6.614;2023-05-24T13:57:21;5.85;;;2.20;;
52942;SDS011;38809;53.300;6.614;2023-05-24T13:59:47;6.90;;;2.10;;
52942;SDS011;38809;53.300;6.614;2023-05-24T14:02:13;7.55;;;2.28;;
52942;SDS011;38809;53.300;6.614;2023-05-24T14:04:39;5.82;;;2.10;;
52942;SDS011;38809;53.300;6.614;2023-05-24T14:07:04;6.00;;;1.90;;
52942;SDS011;38809;53.300;6.614;2023-05-24T14:09:32;6.78;;;1.63;;
52942;SDS011;38809;53.300;6.614;2023-05-24T14:11:58;6.18;;;2.03;;
52942;SDS011;38809;53.300;6.614;2023-05-24T14:14:26;6.75;;;1.60;;
52942;SDS011;38809;53.300;6.614;2023-05-24T14:16:51;8.73;;;2.10;;
52942;SDS011;38809;53.300;6.614;2023-05-24T14:19:19;7.50;;;1.98;;
52942;SDS011;38809;53.300;6.614;2023-05-24T14:21:45;5.72;;;1.90;;
52942;SDS011;38809;53.300;6.614;2023-05-24T14:24:11;4.03;;;1.88;;
52942;SDS011;38809;53.300;6.614;2023-05-24T14:26:36;6.53;;;1.90;;
52942;SDS011;38809;53.300;6.614;2023-05-24T14:29:02;4.78;;;1.92;;
52942;SDS011;38809;53.300;6.614;2023-05-24T14:31:28;8.40;;;2.20;;
52942;SDS011;38809;53.300;6.614;2023-05-24T14:33:54;5.57;;;1.97;;
52942;SDS011;38809;53.300;6.614;2023-05-24T14:36:19;8.23;;;2.25;;
52942;SDS011;38809;53.300;6.614;2023-05-24T14:38:45;6.47;;;2.25;;
52942;SDS011;38809;53.300;6.614;2023-05-24T14:41:11;6.65;;;1.63;;
52942;SDS011;38809;53.300;6.614;2023-05-24T14:43:37;8.13;;;1.98;;
52942;SDS011;38809;53.300;6.614;2023-05-24T14:46:04;5.65;;;1.90;;
52942;SDS011;38809;53.300;6.614;2023-05-24T14:48:29;5.63;;;1.42;;
52942;SDS011;38809;53.300;6.614;2023-05-24T14:50:55;5.28;;;1.67;;
52942;SDS011;38809;53.300;6.614;2023-05-24T14:53:21;4.15;;;2.13;;
52942;SDS011;38809;53.300;6.614;2023-05-24T14:55:46;4.45;;;1.73;;
52942;SDS011;38809;53.300;6.614;2023-05-24T14:58:12;4.82;;;1.70;;
52942;SDS011;38809;53.300;6.614;2023-05-24T15:00:40;8.55;;;2.38;;
52942;SDS011;38809;53.300;6.614;2023-05-24T15:03:06;4.80;;;1.73;;
52942;SDS011;38809;53.300;6.614;2023-05-24T15:05:33;6.15;;;1.48;;
52942;SDS011;38809;53.300;6.614;2023-05-24T15:07:59;8.15;;;2.10;;
52942;SDS011;38809;53.300;6.614;2023-05-24T15:10:25;7.00;;;2.20;;
52942;SDS011;38809;53.300;6.614;2023-05-24T15:12:50;6.43;;;1.55;;
52942;SDS011;38809;53.300;6.614;2023-05-24T15:15:16;7.70;;;1.90;;
52942;SDS011;38809;53.300;6.614;2023-05-24T15:20:08;5.65;;;1.90;;
52942;SDS011;38809;53.300;6.614;2023-05-24T15:22:34;5.32;;;1.73;;
52942;SDS011;38809;53.300;6.614;2023-05-24T15:25:00;5.03;;;1.75;;
52942;SDS011;38809;53.300;6.614;2023-05-24T15:27:26;4.60;;;2.00;;
52942;SDS011;38809;53.300;6.614;2023-05-24T15:32:22;5.32;;;1.80;;
52942;SDS011;38809;53.300;6.614;2023-05-24T15:34:51;4.93;;;1.35;;
52942;SDS011;38809;53.300;6.614;2023-05-24T15:37:17;4.47;;;1.42;;